Strawberry Valley, California
Current Conditions -  °F | °C
As of 10:40 PM on Friday 24 Oct 2014 (Local Time) from KGOO Reporting Station
Clear Clear  
Wind Chill: 13°   Ceiling: Unl
Heat Index: 13°   Visibility: 10mi
Dew Point:   Wind: 6mph
Humidity: 67%   Direction: 140°SE
Pressure: 29.97"   Gusts: NA
Location:  39.56°N, 121.11°W
Report Text: KGOO 250540Z AUTO 14005KT 10SM CLR 13/07 A2997 RMK AO1
Loading
Personal Weather Stations






























Interactive Weather Map
Tropical Storm Tracking
New forecast layout! Learn more

10-Day Weather Forecast

Advertisements
Track Severe Weather on mobile